createdAt,value
2022-08-24T00:00:35.200Z,99.90
2022-08-24T00:03:02.770Z,99.90
2022-08-24T00:05:30.035Z,99.90
2022-08-24T00:07:57.106Z,99.90
2022-08-24T00:10:24.472Z,99.90
2022-08-24T00:12:51.319Z,99.90
2022-08-24T00:15:18.414Z,99.90
2022-08-24T00:17:45.440Z,99.90
2022-08-24T00:20:13.013Z,99.90
2022-08-24T00:22:41.124Z,99.90
2022-08-24T00:25:10.720Z,99.90
2022-08-24T00:27:38.987Z,99.90
2022-08-24T00:30:08.937Z,99.90
2022-08-24T00:32:37.676Z,99.90
2022-08-24T00:35:06.304Z,99.90
2022-08-24T00:37:35.550Z,99.90
2022-08-24T00:40:06.462Z,99.90
2022-08-24T00:42:33.368Z,99.90
2022-08-24T00:45:00.236Z,99.90
2022-08-24T00:47:39.744Z,99.90
2022-08-24T00:50:11.568Z,99.90
2022-08-24T00:53:00.823Z,99.90
2022-08-24T00:55:33.956Z,99.90
2022-08-24T00:58:07.687Z,99.90
2022-08-24T01:00:45.521Z,99.90
2022-08-24T01:03:16.084Z,99.90
2022-08-24T01:05:44.191Z,99.90
2022-08-24T01:08:13.490Z,99.90
2022-08-24T01:10:47.303Z,99.90
2022-08-24T01:13:15.800Z,99.90
2022-08-24T01:15:47.661Z,99.90
2022-08-24T01:18:43.728Z,99.90
2022-08-24T01:21:36.224Z,99.90
2022-08-24T01:24:05.806Z,99.90
2022-08-24T01:26:50.420Z,99.90
2022-08-24T01:29:23.814Z,99.90
2022-08-24T01:31:51.181Z,99.90
2022-08-24T01:34:18.105Z,99.90
2022-08-24T01:36:55.908Z,99.90
2022-08-24T01:39:28.839Z,99.90
2022-08-24T01:41:56.845Z,99.90
2022-08-24T01:44:25.859Z,99.90
2022-08-24T01:46:54.462Z,99.90
2022-08-24T01:49:24.570Z,99.90
2022-08-24T01:51:51.431Z,99.90
2022-08-24T01:54:18.478Z,99.90
2022-08-24T01:56:45.571Z,99.90
2022-08-24T01:59:12.958Z,99.90
2022-08-24T02:01:46.792Z,99.90
2022-08-24T02:04:17.586Z,99.90
2022-08-24T02:06:46.489Z,99.90
2022-08-24T02:09:14.995Z,99.90
2022-08-24T02:11:42.667Z,99.90
2022-08-24T02:14:14.571Z,99.90
2022-08-24T02:16:42.016Z,99.90
2022-08-24T02:19:08.831Z,99.90
2022-08-24T02:21:35.792Z,99.90
2022-08-24T02:24:02.797Z,99.90
2022-08-24T02:26:31.462Z,99.90
2022-08-24T02:28:59.402Z,99.90
2022-08-24T02:31:33.461Z,99.90
2022-08-24T02:34:01.087Z,99.90
2022-08-24T02:36:28.168Z,99.90
2022-08-24T02:38:59.142Z,99.90
2022-08-24T02:41:26.439Z,99.90
2022-08-24T02:43:55.935Z,99.90
2022-08-24T02:46:26.742Z,99.90
2022-08-24T02:49:01.766Z,99.90
2022-08-24T02:51:44.930Z,99.90
2022-08-24T02:54:17.903Z,99.90
2022-08-24T02:56:47.117Z,99.90
2022-08-24T02:59:15.387Z,99.90
2022-08-24T03:01:42.920Z,99.90
2022-08-24T03:04:10.879Z,99.90
2022-08-24T03:06:37.746Z,99.90
2022-08-24T03:09:04.722Z,99.90
2022-08-24T03:11:32.195Z,99.90
2022-08-24T03:13:59.627Z,99.90
2022-08-24T03:16:28.354Z,99.90
2022-08-24T03:18:55.741Z,99.90
2022-08-24T03:21:24.104Z,99.90
2022-08-24T03:23:53.112Z,99.90
2022-08-24T03:26:21.115Z,99.90
2022-08-24T03:28:49.586Z,99.90
2022-08-24T03:31:17.450Z,99.90
2022-08-24T03:33:46.556Z,99.90
2022-08-24T03:36:14.436Z,99.90
2022-08-24T03:38:42.371Z,99.90
2022-08-24T03:41:09.962Z,99.90
2022-08-24T03:43:48.728Z,99.90
2022-08-24T03:46:28.601Z,99.90
2022-08-24T03:48:58.048Z,99.90
2022-08-24T03:51:27.817Z,99.90
2022-08-24T03:53:57.189Z,99.90
2022-08-24T03:56:27.352Z,99.90
2022-08-24T03:58:55.098Z,99.90
2022-08-24T04:01:24.342Z,99.90
2022-08-24T04:03:54.146Z,99.90
2022-08-24T04:06:25.095Z,99.90
2022-08-24T04:08:53.158Z,99.90
2022-08-24T04:11:23.863Z,99.90
2022-08-24T04:13:59.281Z,99.90
2022-08-24T04:16:28.166Z,99.90
2022-08-24T04:19:13.747Z,99.90
2022-08-24T04:21:40.967Z,99.90
2022-08-24T04:24:10.375Z,99.90
2022-08-24T04:26:45.435Z,99.90
2022-08-24T04:29:18.528Z,99.90
2022-08-24T04:31:50.354Z,99.90
2022-08-24T04:34:18.298Z,99.90
2022-08-24T04:36:45.896Z,99.90
2022-08-24T04:39:14.018Z,99.90
2022-08-24T04:41:57.451Z,99.90
2022-08-24T04:44:34.832Z,99.90
2022-08-24T04:47:01.617Z,99.90
2022-08-24T04:49:29.815Z,99.90
2022-08-24T04:51:56.665Z,99.90
2022-08-24T04:54:24.723Z,99.90
2022-08-24T04:57:04.501Z,99.90
2022-08-24T04:59:31.260Z,99.90
2022-08-24T05:01:58.014Z,99.90
2022-08-24T05:04:24.760Z,99.90
2022-08-24T05:06:53.178Z,99.90
2022-08-24T05:09:21.767Z,99.90
2022-08-24T05:11:50.094Z,99.90
2022-08-24T05:14:24.581Z,99.90
2022-08-24T05:16:55.106Z,99.90
2022-08-24T05:19:23.208Z,99.90
2022-08-24T05:21:50.513Z,99.90
2022-08-24T05:24:18.211Z,99.90
2022-08-24T05:26:45.842Z,99.90
2022-08-24T05:29:12.795Z,99.90
2022-08-24T05:31:46.391Z,99.90
2022-08-24T05:34:14.636Z,99.90
2022-08-24T05:36:42.526Z,99.90
2022-08-24T05:39:16.235Z,99.90
2022-08-24T05:41:56.200Z,99.90
2022-08-24T05:44:35.584Z,99.90
2022-08-24T05:47:03.219Z,99.90
2022-08-24T05:49:31.130Z,99.90
2022-08-24T05:51:58.834Z,99.90
2022-08-24T05:54:26.852Z,99.90
2022-08-24T05:57:04.964Z,99.90
2022-08-24T05:59:47.864Z,99.90
2022-08-24T06:02:19.479Z,99.90
2022-08-24T06:04:46.747Z,99.90
2022-08-24T06:07:14.383Z,99.90
2022-08-24T06:09:45.507Z,99.90
2022-08-24T06:12:12.810Z,99.90
2022-08-24T06:14:46.018Z,99.90
2022-08-24T06:17:13.814Z,99.90
2022-08-24T06:19:42.230Z,99.90
2022-08-24T06:22:09.562Z,99.90
2022-08-24T06:24:58.864Z,99.90
2022-08-24T06:27:26.723Z,99.90
2022-08-24T06:30:05.044Z,99.90
2022-08-24T06:32:43.928Z,99.90
2022-08-24T06:35:18.411Z,99.90
2022-08-24T06:37:45.520Z,99.90
2022-08-24T06:40:13.511Z,99.90
2022-08-24T06:42:40.267Z,99.90
2022-08-24T06:45:21.419Z,99.90
2022-08-24T06:47:48.710Z,99.90
2022-08-24T06:50:17.084Z,99.90
2022-08-24T06:52:44.637Z,99.90
2022-08-24T06:55:13.042Z,99.90
2022-08-24T06:57:39.852Z,99.90
2022-08-24T07:00:08.939Z,99.90
2022-08-24T07:02:36.053Z,99.90
2022-08-24T07:05:03.186Z,99.90
2022-08-24T07:07:48.511Z,99.90
2022-08-24T07:10:15.361Z,99.90
2022-08-24T07:12:42.252Z,99.90
2022-08-24T07:15:15.830Z,99.90
2022-08-24T07:17:45.996Z,99.90
2022-08-24T07:20:13.008Z,99.90
2022-08-24T07:23:00.574Z,99.90
2022-08-24T07:25:30.446Z,99.90
2022-08-24T07:27:58.595Z,99.90
2022-08-24T07:30:27.622Z,99.90
2022-08-24T07:32:59.308Z,99.90
2022-08-24T07:35:29.629Z,99.90
2022-08-24T07:37:56.862Z,99.90
2022-08-24T07:40:25.391Z,99.40
2022-08-24T07:42:54.663Z,99.30
2022-08-24T07:45:22.463Z,98.70
2022-08-24T07:47:55.423Z,98.70
2022-08-24T07:50:37.189Z,98.40
2022-08-24T07:53:04.389Z,97.80
2022-08-24T07:55:32.762Z,97.30
2022-08-24T07:58:00.711Z,96.90
2022-08-24T08:00:27.568Z,96.80
2022-08-24T08:03:01.071Z,96.30
2022-08-24T08:05:29.322Z,96.10
2022-08-24T08:07:56.698Z,95.60
2022-08-24T08:10:23.789Z,95.30
2022-08-24T08:12:52.892Z,95.00
2022-08-24T08:15:20.036Z,95.20
2022-08-24T08:17:55.901Z,95.00
2022-08-24T08:20:30.025Z,94.20
2022-08-24T08:23:15.916Z,93.70
2022-08-24T08:25:54.454Z,92.90
2022-08-24T08:28:35.899Z,92.30
2022-08-24T08:31:05.935Z,91.40
2022-08-24T08:33:35.918Z,90.70
2022-08-24T08:36:10.485Z,89.20
2022-08-24T08:38:43.342Z,87.20
2022-08-24T08:41:26.851Z,87.30
2022-08-24T08:44:38.561Z,85.70
2022-08-24T08:47:43.652Z,84.50
2022-08-24T08:50:25.642Z,83.60
2022-08-24T08:52:55.588Z,81.70
2022-08-24T08:55:36.758Z,81.00
2022-08-24T08:58:39.956Z,79.30
2022-08-24T09:01:16.045Z,78.30
2022-08-24T09:04:04.246Z,79.20
2022-08-24T09:07:14.111Z,76.90
2022-08-24T09:10:12.808Z,76.00
2022-08-24T09:13:01.587Z,75.40
2022-08-24T09:16:10.960Z,73.50
2022-08-24T09:18:49.255Z,72.90
2022-08-24T09:21:38.498Z,71.30
2022-08-24T09:24:37.278Z,70.90
2022-08-24T09:27:13.458Z,70.40
2022-08-24T09:30:05.921Z,70.80
2022-08-24T09:32:44.000Z,70.50
2022-08-24T09:35:26.279Z,69.70
2022-08-24T09:38:05.336Z,69.90
2022-08-24T09:40:50.282Z,69.20
2022-08-24T09:43:54.690Z,68.40
2022-08-24T09:46:52.255Z,68.40
2022-08-24T09:49:29.442Z,66.90
2022-08-24T09:52:09.213Z,66.40
2022-08-24T09:54:45.226Z,65.70
2022-08-24T09:57:44.279Z,65.50
2022-08-24T10:00:44.134Z,64.90
2022-08-24T10:03:38.615Z,63.80
2022-08-24T10:06:16.683Z,63.80
2022-08-24T10:08:57.491Z,64.40
2022-08-24T10:11:30.106Z,64.60
2022-08-24T10:14:25.075Z,63.10
2022-08-24T10:17:00.889Z,62.50
2022-08-24T10:19:55.999Z,61.80
2022-08-24T10:22:47.007Z,59.70
2022-08-24T10:25:33.100Z,59.70
2022-08-24T10:28:37.679Z,60.00
2022-08-24T10:31:12.926Z,59.60
2022-08-24T10:33:48.975Z,59.50
2022-08-24T10:36:30.773Z,58.60
2022-08-24T10:39:35.146Z,58.30
2022-08-24T10:42:54.524Z,57.60
2022-08-24T10:45:42.413Z,56.00
2022-08-24T10:48:33.479Z,54.60
2022-08-24T10:51:29.143Z,55.30
2022-08-24T10:53:56.996Z,54.90
2022-08-24T10:56:29.999Z,54.90
2022-08-24T10:59:17.121Z,54.40
2022-08-24T11:02:12.496Z,55.10
2022-08-24T11:04:40.323Z,54.40
2022-08-24T11:07:19.128Z,54.70
2022-08-24T11:09:56.290Z,53.80
2022-08-24T11:12:37.667Z,53.30
2022-08-24T11:15:19.093Z,53.70
2022-08-24T11:17:56.598Z,53.80
2022-08-24T11:20:36.513Z,53.20
2022-08-24T11:23:05.773Z,53.90
2022-08-24T11:25:36.613Z,53.60
2022-08-24T11:28:33.298Z,52.60
2022-08-24T11:31:00.944Z,52.10
2022-08-24T11:33:35.330Z,52.10
2022-08-24T11:36:13.828Z,52.40
2022-08-24T11:38:48.726Z,52.00
2022-08-24T11:41:33.002Z,51.60
2022-08-24T11:44:29.802Z,51.00
2022-08-24T11:47:05.406Z,50.50
2022-08-24T11:50:07.831Z,50.60
2022-08-24T11:53:00.758Z,50.40
2022-08-24T11:55:46.967Z,50.70
2022-08-24T11:58:23.452Z,50.70
2022-08-24T12:01:04.785Z,51.00
2022-08-24T12:03:43.442Z,50.80
2022-08-24T12:06:35.165Z,50.90
2022-08-24T12:09:17.883Z,50.90
2022-08-24T12:12:00.290Z,50.90
2022-08-24T12:14:48.641Z,51.10
2022-08-24T12:17:28.335Z,51.10
2022-08-24T12:20:01.315Z,50.30
2022-08-24T12:22:29.707Z,50.50
2022-08-24T12:25:00.841Z,49.80
2022-08-24T12:27:33.526Z,49.70
2022-08-24T12:30:12.659Z,49.40
2022-08-24T12:32:45.252Z,49.30
2022-08-24T12:35:24.429Z,49.20
2022-08-24T12:38:03.126Z,48.80
2022-08-24T12:40:36.661Z,48.90
2022-08-24T12:43:23.708Z,49.30
2022-08-24T12:45:51.356Z,49.40
2022-08-24T12:48:18.333Z,49.00
2022-08-24T12:51:22.734Z,48.40
2022-08-24T12:54:15.849Z,48.50
2022-08-24T12:56:51.515Z,48.00
2022-08-24T12:59:28.387Z,47.90
2022-08-24T13:02:06.544Z,47.40
2022-08-24T13:04:53.613Z,47.50
2022-08-24T13:07:42.728Z,47.20
2022-08-24T13:10:12.045Z,46.50
2022-08-24T13:12:41.750Z,46.40
2022-08-24T13:15:23.937Z,46.50
2022-08-24T13:18:18.388Z,46.40
2022-08-24T13:20:45.138Z,46.70
2022-08-24T13:23:14.306Z,47.20
2022-08-24T13:25:47.083Z,47.60
2022-08-24T13:28:22.879Z,47.60
2022-08-24T13:31:08.440Z,47.40
2022-08-24T13:33:57.125Z,47.50
2022-08-24T13:36:42.628Z,47.90
2022-08-24T13:39:24.863Z,47.60
2022-08-24T13:42:12.466Z,47.40
2022-08-24T13:44:45.316Z,47.00
2022-08-24T13:47:31.268Z,47.00
2022-08-24T13:50:29.648Z,46.70
2022-08-24T13:53:33.577Z,46.90
2022-08-24T13:56:32.380Z,46.60
2022-08-24T13:59:09.802Z,45.80
2022-08-24T14:01:43.096Z,45.80
2022-08-24T14:04:25.047Z,45.20
2022-08-24T14:07:10.025Z,45.30
2022-08-24T14:09:53.180Z,45.30
2022-08-24T14:12:29.808Z,45.00
2022-08-24T14:15:20.425Z,45.00
2022-08-24T14:18:09.710Z,45.10
2022-08-24T14:20:45.583Z,45.70
2022-08-24T14:23:47.225Z,45.70
2022-08-24T14:26:42.300Z,45.70
2022-08-24T14:29:18.184Z,45.40
2022-08-24T14:32:12.119Z,45.20
2022-08-24T14:34:48.797Z,44.40
2022-08-24T14:37:18.405Z,44.20
2022-08-24T14:40:10.477Z,44.30
2022-08-24T14:42:54.877Z,44.50
2022-08-24T14:45:39.762Z,44.30
2022-08-24T14:48:40.876Z,44.80
2022-08-24T14:51:35.130Z,45.60
2022-08-24T14:54:47.178Z,45.70
2022-08-24T14:57:37.069Z,45.80
2022-08-24T15:00:13.809Z,45.50
2022-08-24T15:03:18.985Z,45.70
2022-08-24T15:06:28.189Z,44.90
2022-08-24T15:09:07.449Z,44.40
2022-08-24T15:11:39.387Z,44.60
2022-08-24T15:14:12.097Z,44.80
2022-08-24T15:17:11.903Z,45.20
2022-08-24T15:20:01.390Z,44.60
2022-08-24T15:22:44.573Z,44.30
2022-08-24T15:25:34.802Z,44.60
2022-08-24T15:28:14.521Z,44.60
2022-08-24T15:30:52.833Z,44.20
2022-08-24T15:33:20.882Z,44.40
2022-08-24T15:36:04.336Z,44.30
2022-08-24T15:38:35.351Z,44.60
2022-08-24T15:41:30.947Z,44.60
2022-08-24T15:44:04.052Z,44.90
2022-08-24T15:46:42.944Z,44.70
2022-08-24T15:49:17.998Z,44.30
2022-08-24T15:51:50.274Z,44.40
2022-08-24T15:54:24.874Z,44.50
2022-08-24T15:57:10.699Z,44.80
2022-08-24T15:59:39.184Z,45.00
2022-08-24T16:02:29.150Z,45.40
2022-08-24T16:05:01.941Z,45.70
2022-08-24T16:07:53.845Z,45.80
2022-08-24T16:10:28.623Z,45.90
2022-08-24T16:13:18.630Z,46.10
2022-08-24T16:16:11.766Z,46.60
2022-08-24T16:18:59.052Z,46.20
2022-08-24T16:21:47.426Z,46.40
2022-08-24T16:24:28.265Z,46.50
2022-08-24T16:26:59.984Z,46.80
2022-08-24T16:29:39.351Z,47.50
2022-08-24T16:32:21.892Z,47.10
2022-08-24T16:35:10.892Z,47.50
2022-08-24T16:37:39.220Z,47.90
2022-08-24T16:40:07.151Z,47.10
2022-08-24T16:42:34.906Z,48.10
2022-08-24T16:45:04.830Z,47.50
2022-08-24T16:47:31.651Z,48.10
2022-08-24T16:49:58.902Z,48.50
2022-08-24T16:52:25.670Z,49.60
2022-08-24T16:54:52.461Z,50.30
2022-08-24T16:57:22.916Z,50.50
2022-08-24T16:59:51.248Z,51.40
2022-08-24T17:02:19.877Z,52.70
2022-08-24T17:04:46.744Z,52.00
2022-08-24T17:07:17.069Z,53.10
2022-08-24T17:09:47.298Z,53.00
2022-08-24T17:12:15.183Z,53.20
2022-08-24T17:14:42.738Z,53.30
2022-08-24T17:17:15.936Z,53.90
2022-08-24T17:19:43.864Z,53.80
2022-08-24T17:22:15.980Z,54.40
2022-08-24T17:24:44.117Z,54.30
2022-08-24T17:27:12.139Z,54.70
2022-08-24T17:29:39.248Z,54.70
2022-08-24T17:32:06.379Z,55.00
2022-08-24T17:34:33.829Z,55.20
2022-08-24T17:37:01.439Z,55.50
2022-08-24T17:39:29.170Z,56.20
2022-08-24T17:41:58.176Z,56.00
2022-08-24T17:44:28.151Z,56.00
2022-08-24T17:46:57.721Z,56.20
2022-08-24T17:49:25.985Z,56.40
2022-08-24T17:51:53.701Z,56.80
2022-08-24T17:54:21.752Z,56.10
2022-08-24T17:56:50.918Z,56.30
2022-08-24T17:59:25.738Z,56.70
2022-08-24T18:01:54.479Z,56.90
2022-08-24T18:04:25.635Z,57.00
2022-08-24T18:06:53.077Z,57.30
2022-08-24T18:09:27.459Z,57.80
2022-08-24T18:11:54.203Z,58.20
2022-08-24T18:14:22.376Z,58.60
2022-08-24T18:16:54.093Z,58.80
2022-08-24T18:19:21.617Z,59.30
2022-08-24T18:21:51.590Z,59.10
2022-08-24T18:24:18.587Z,59.50
2022-08-24T18:26:48.074Z,59.20
2022-08-24T18:29:17.784Z,59.90
2022-08-24T18:31:48.370Z,59.70
2022-08-24T18:34:21.786Z,59.60
2022-08-24T18:36:49.151Z,59.80
2022-08-24T18:39:16.052Z,60.00
2022-08-24T18:41:49.503Z,60.00
2022-08-24T18:44:21.686Z,60.70
2022-08-24T18:46:49.441Z,60.80
2022-08-24T18:49:20.757Z,61.30
2022-08-24T18:51:48.238Z,61.70
2022-08-24T18:54:26.528Z,61.80
2022-08-24T18:56:53.453Z,62.00
2022-08-24T18:59:21.124Z,62.10
2022-08-24T19:02:09.988Z,62.90
2022-08-24T19:04:44.107Z,63.60
2022-08-24T19:07:11.224Z,64.10
2022-08-24T19:09:38.186Z,64.30
2022-08-24T19:12:06.372Z,64.60
2022-08-24T19:14:34.225Z,64.80
2022-08-24T19:17:01.037Z,64.70
2022-08-24T19:19:27.772Z,65.70
2022-08-24T19:21:55.107Z,66.40
2022-08-24T19:24:26.312Z,67.10
2022-08-24T19:26:53.689Z,67.80
2022-08-24T19:29:44.839Z,67.20
2022-08-24T19:32:13.928Z,67.80
2022-08-24T19:34:50.321Z,68.20
2022-08-24T19:37:17.451Z,69.00
2022-08-24T19:39:45.897Z,69.20
2022-08-24T19:42:16.357Z,69.30
2022-08-24T19:45:02.314Z,69.90
2022-08-24T19:47:34.530Z,70.60
2022-08-24T19:50:03.207Z,71.30
2022-08-24T19:52:32.432Z,71.50
2022-08-24T19:55:00.927Z,72.00
2022-08-24T19:57:33.907Z,72.20
2022-08-24T20:00:20.967Z,72.50
2022-08-24T20:02:53.833Z,73.50
2022-08-24T20:05:22.445Z,73.60
2022-08-24T20:07:50.381Z,74.40
2022-08-24T20:10:19.760Z,74.10
2022-08-24T20:12:46.636Z,74.80
2022-08-24T20:15:13.944Z,74.80
2022-08-24T20:17:41.186Z,75.10
2022-08-24T20:20:10.361Z,75.30
2022-08-24T20:22:38.101Z,75.30
2022-08-24T20:25:06.084Z,75.60
2022-08-24T20:27:33.171Z,75.90
2022-08-24T20:30:00.602Z,76.30
2022-08-24T20:32:29.316Z,76.50
2022-08-24T20:34:56.131Z,76.70
2022-08-24T20:37:28.361Z,76.90
2022-08-24T20:39:57.082Z,77.20
2022-08-24T20:42:26.620Z,77.60
2022-08-24T20:44:56.556Z,78.00
2022-08-24T20:47:23.575Z,78.40
2022-08-24T20:49:51.029Z,78.70
2022-08-24T20:52:17.888Z,78.90
2022-08-24T20:54:45.070Z,79.30
2022-08-24T20:57:16.777Z,80.50
2022-08-24T20:59:43.849Z,79.90
2022-08-24T21:02:10.763Z,80.90
2022-08-24T21:04:38.130Z,81.00
2022-08-24T21:07:04.903Z,80.80
2022-08-24T21:09:31.932Z,80.80
2022-08-24T21:11:59.063Z,80.80
2022-08-24T21:14:25.958Z,81.20
2022-08-24T21:16:59.325Z,81.70
2022-08-24T21:19:26.184Z,82.10
2022-08-24T21:21:53.092Z,82.00
2022-08-24T21:24:19.944Z,82.30
2022-08-24T21:26:47.016Z,81.70
2022-08-24T21:29:13.859Z,82.00
2022-08-24T21:31:40.754Z,81.60
2022-08-24T21:34:39.998Z,82.30
2022-08-24T21:37:12.224Z,82.30
2022-08-24T21:39:39.377Z,81.70
2022-08-24T21:42:06.660Z,82.10
2022-08-24T21:44:33.645Z,82.00
2022-08-24T21:47:01.380Z,81.90
2022-08-24T21:49:29.284Z,82.20
2022-08-24T21:51:56.448Z,82.90
2022-08-24T21:54:23.354Z,83.10
2022-08-24T21:56:50.258Z,83.40
2022-08-24T21:59:17.260Z,83.90
2022-08-24T22:01:44.081Z,83.60
2022-08-24T22:04:12.360Z,83.30
2022-08-24T22:06:39.507Z,83.10
2022-08-24T22:09:06.982Z,84.10
2022-08-24T22:11:33.951Z,84.70
2022-08-24T22:14:01.913Z,84.90
2022-08-24T22:16:28.919Z,84.80
2022-08-24T22:18:55.874Z,85.20
2022-08-24T22:21:26.142Z,86.00
2022-08-24T22:23:52.867Z,86.60
2022-08-24T22:26:27.600Z,86.70
2022-08-24T22:28:56.547Z,86.80
2022-08-24T22:31:26.993Z,87.70
2022-08-24T22:33:55.720Z,88.00
2022-08-24T22:36:23.208Z,88.80
2022-08-24T22:38:50.753Z,89.50
2022-08-24T22:41:18.049Z,89.50
2022-08-24T22:44:03.417Z,90.00
2022-08-24T22:46:30.237Z,90.10
2022-08-24T22:48:57.199Z,90.10
2022-08-24T22:51:24.075Z,90.00
2022-08-24T22:53:51.501Z,90.30
2022-08-24T22:56:23.836Z,90.20
2022-08-24T22:58:51.621Z,90.10
2022-08-24T23:01:23.204Z,90.30
2022-08-24T23:03:50.947Z,90.40
2022-08-24T23:06:18.215Z,90.50
2022-08-24T23:08:46.354Z,90.80
2022-08-24T23:11:13.850Z,90.90
2022-08-24T23:13:41.562Z,91.10
2022-08-24T23:16:11.500Z,91.60
2022-08-24T23:18:58.059Z,91.90
2022-08-24T23:21:28.772Z,92.40
2022-08-24T23:23:55.989Z,92.60
2022-08-24T23:26:23.158Z,92.90
2022-08-24T23:28:50.361Z,93.50
2022-08-24T23:31:19.209Z,93.50
2022-08-24T23:33:46.659Z,93.80
2022-08-24T23:36:24.926Z,93.80
2022-08-24T23:38:54.652Z,93.90
2022-08-24T23:41:26.272Z,93.70
2022-08-24T23:43:54.493Z,93.50
2022-08-24T23:46:22.254Z,93.30
2022-08-24T23:48:51.060Z,93.10
2022-08-24T23:51:23.909Z,93.00
2022-08-24T23:53:51.332Z,92.80
2022-08-24T23:56:20.567Z,92.70
2022-08-24T23:58:50.022Z,92.70
